createdAt,value
2023-04-11T06:49:14.907Z,7.68
2023-04-11T06:52:17.493Z,7.84
2023-04-11T06:55:21.032Z,7.91
2023-04-11T07:06:53.696Z,7.98
2023-04-11T07:09:59.139Z,8.12
2023-04-11T07:13:01.809Z,8.14
2023-04-11T07:16:05.007Z,8.27
2023-04-11T07:24:27.417Z,8.31
2023-04-11T07:27:33.510Z,8.39
2023-04-11T07:30:36.790Z,8.40
2023-04-11T07:33:39.861Z,8.45
2023-04-11T07:36:42.726Z,8.52
2023-04-11T07:39:46.919Z,8.53
2023-04-11T07:46:03.610Z,8.67
2023-04-11T07:49:06.175Z,8.82
2023-04-11T07:52:08.744Z,8.91
2023-04-11T07:55:11.843Z,8.99
2023-04-11T07:58:14.368Z,8.98
2023-04-11T08:01:25.783Z,9.09
2023-04-11T08:04:32.527Z,9.11
2023-04-11T08:07:35.241Z,9.14
2023-04-11T08:10:37.744Z,9.24
2023-04-11T08:13:40.519Z,9.25
2023-04-11T08:16:44.616Z,9.23
2023-04-11T08:19:47.111Z,9.19
2023-04-11T08:22:49.741Z,9.27
2023-04-11T08:25:52.262Z,9.32
2023-04-11T08:28:54.780Z,9.35
2023-04-11T08:31:58.580Z,9.35
2023-04-11T08:35:01.114Z,9.46
2023-04-11T08:38:03.616Z,9.53
2023-04-11T08:41:06.581Z,9.51
2023-04-11T08:44:11.992Z,9.53
2023-04-11T08:47:17.512Z,9.47
2023-04-11T08:50:20.168Z,9.44
2023-04-11T08:53:24.599Z,9.51
2023-04-11T08:56:27.072Z,9.51
2023-04-11T08:59:29.575Z,9.56
2023-04-11T09:07:16.475Z,9.37
2023-04-11T09:10:20.986Z,9.38
2023-04-11T09:13:24.857Z,9.41
2023-04-11T09:16:27.390Z,9.42
2023-04-11T09:19:31.392Z,9.49
2023-04-11T09:22:37.384Z,9.63
2023-04-11T09:25:45.332Z,9.68
2023-04-11T09:28:53.387Z,9.76
2023-04-11T09:31:57.007Z,9.90
2023-04-11T09:35:10.380Z,9.95
2023-04-11T09:38:14.307Z,10.04
2023-04-11T09:41:17.110Z,10.25
2023-04-11T09:44:19.679Z,10.21
2023-04-11T09:47:22.456Z,10.30
2023-04-11T09:50:26.421Z,10.26
2023-04-11T09:53:31.561Z,10.21
2023-04-11T09:56:35.177Z,10.34
2023-04-11T09:59:40.790Z,10.61
2023-04-11T10:02:45.958Z,10.61
2023-04-11T10:05:49.987Z,10.76
2023-04-11T10:08:54.344Z,10.99
2023-04-11T10:11:57.308Z,11.05
2023-04-11T10:15:08.217Z,10.99
2023-04-11T10:18:12.451Z,11.17
2023-04-11T10:21:41.024Z,11.06
2023-04-11T10:25:18.740Z,11.51
2023-04-11T10:28:35.416Z,12.13
2023-04-11T10:32:08.686Z,12.32
2023-04-11T10:35:22.953Z,12.38
2023-04-11T10:38:51.277Z,12.52
2023-04-11T10:41:55.403Z,12.49
2023-04-11T10:45:21.806Z,12.69
2023-04-11T10:48:24.357Z,12.55
2023-04-11T10:51:27.836Z,12.77
2023-04-11T10:54:30.411Z,12.91
2023-04-11T10:58:16.613Z,13.51
2023-04-11T11:01:31.958Z,13.30
2023-04-11T11:04:43.701Z,12.65
2023-04-11T11:07:50.735Z,11.99
2023-04-11T11:10:53.229Z,11.16
2023-04-11T11:13:57.070Z,10.65
2023-04-11T11:17:01.407Z,10.14
2023-04-11T11:20:07.721Z,9.81
2023-04-11T11:23:11.762Z,9.67
2023-04-11T11:26:14.234Z,9.49
2023-04-11T11:29:16.777Z,9.48
2023-04-11T11:32:28.024Z,9.60
2023-04-11T11:35:30.945Z,9.81
2023-04-11T11:38:33.704Z,10.08
2023-04-11T11:41:36.292Z,10.43
2023-04-11T11:44:39.006Z,10.77
2023-04-11T11:47:46.401Z,10.99
2023-04-11T11:50:56.184Z,10.82
2023-04-11T11:54:07.536Z,9.89
2023-04-11T11:57:09.992Z,10.19
2023-04-11T12:00:13.906Z,10.84
2023-04-11T12:03:22.289Z,10.78
2023-04-11T12:06:30.988Z,10.22
2023-04-11T12:09:33.518Z,10.69
2023-04-11T12:12:37.405Z,10.22
2023-04-11T12:15:41.875Z,10.97
2023-04-11T12:18:45.951Z,10.88
2023-04-11T12:21:48.451Z,10.47
2023-04-11T12:24:52.936Z,10.64
2023-04-11T12:27:55.435Z,10.21
2023-04-11T12:30:57.919Z,10.61
2023-04-11T12:34:01.828Z,11.17
2023-04-11T12:37:04.281Z,11.64
2023-04-11T12:40:10.998Z,13.16
2023-04-11T12:43:13.618Z,13.46
2023-04-11T12:46:17.240Z,13.52
2023-04-11T12:49:21.429Z,13.89
2023-04-11T12:52:25.307Z,13.47
2023-04-11T12:55:28.694Z,13.16
2023-04-11T12:58:33.026Z,13.11
2023-04-11T13:01:37.002Z,13.93
2023-04-11T13:04:41.716Z,14.22
2023-04-11T13:07:46.323Z,12.43
2023-04-11T13:10:49.023Z,12.40
2023-04-11T13:13:51.979Z,11.89
2023-04-11T13:16:54.628Z,11.84
2023-04-11T13:19:58.491Z,11.85
2023-04-11T13:23:01.006Z,11.55
2023-04-11T13:26:03.631Z,11.18
2023-04-11T13:29:06.687Z,10.70
2023-04-11T13:32:09.204Z,9.96
2023-04-11T13:35:13.046Z,10.84
2023-04-11T13:38:15.554Z,10.91
2023-04-11T13:41:18.116Z,10.99
2023-04-11T13:44:20.665Z,10.68
2023-04-11T13:47:23.180Z,9.49
2023-04-11T13:50:27.130Z,9.00
2023-04-11T13:53:29.730Z,8.50
2023-04-11T13:56:32.248Z,8.09
2023-04-11T13:59:35.302Z,7.87
2023-04-11T14:02:37.924Z,7.49
2023-04-11T14:05:41.865Z,7.38
2023-04-11T14:08:44.381Z,7.30
2023-04-11T14:11:46.843Z,7.23
2023-04-11T14:14:49.501Z,7.26
2023-04-11T14:17:51.995Z,7.42
2023-04-11T14:20:56.639Z,7.58
2023-04-11T14:23:59.574Z,7.67
2023-04-11T14:27:03.109Z,7.89
2023-04-11T14:30:06.527Z,7.97
2023-04-11T14:33:09.087Z,8.05
2023-04-11T14:36:12.921Z,8.10
2023-04-11T14:39:15.540Z,8.03
2023-04-11T14:42:18.059Z,8.10
2023-04-11T14:45:20.709Z,8.16
2023-04-11T14:48:24.796Z,8.08
2023-04-11T14:51:29.710Z,8.02
2023-04-11T14:54:32.221Z,7.97
2023-04-11T14:57:48.104Z,8.15
2023-04-11T15:00:50.710Z,8.17
2023-04-11T15:03:54.480Z,8.11
2023-04-11T15:06:59.124Z,8.17
2023-04-11T15:10:01.899Z,8.23
2023-04-11T15:13:04.595Z,8.28
2023-04-11T15:16:08.273Z,8.36
2023-04-11T15:19:10.872Z,8.47
2023-04-11T15:22:14.768Z,8.64
2023-04-11T15:25:17.617Z,8.64
2023-04-11T15:28:20.084Z,8.88
2023-04-11T15:31:26.236Z,9.05
2023-04-11T15:34:28.789Z,9.15
2023-04-11T15:37:32.795Z,9.13
2023-04-11T15:40:35.470Z,9.06
2023-04-11T15:43:38.694Z,9.12
2023-04-11T15:46:41.264Z,9.22
2023-04-11T15:49:43.902Z,9.29
2023-04-11T15:52:48.111Z,9.43
2023-04-11T15:55:51.319Z,9.60
2023-04-11T15:58:53.903Z,9.44
2023-04-11T16:01:56.786Z,9.17
2023-04-11T16:05:01.292Z,9.09
2023-04-11T16:08:05.660Z,9.16
2023-04-11T16:11:08.174Z,9.21
2023-04-11T16:14:11.646Z,9.20
2023-04-11T16:17:15.383Z,9.56
2023-04-11T16:20:21.213Z,9.65
2023-04-11T16:23:25.676Z,9.53
2023-04-11T16:26:28.406Z,9.54
2023-04-11T16:29:30.920Z,9.67
2023-04-11T16:32:33.893Z,9.68
2023-04-11T16:35:36.622Z,9.81
2023-04-11T16:38:41.938Z,10.02
2023-04-11T16:41:44.419Z,9.94
2023-04-11T16:44:46.947Z,10.19
2023-04-11T16:47:49.585Z,10.25
2023-04-11T16:50:52.549Z,10.02
2023-04-11T16:53:58.101Z,9.78
2023-04-11T16:57:01.553Z,9.64
2023-04-11T17:00:16.535Z,9.55
2023-04-11T17:03:19.563Z,9.43
2023-04-11T17:06:22.407Z,9.43
2023-04-11T17:09:26.247Z,9.40
2023-04-11T17:12:28.802Z,9.24
2023-04-11T17:15:31.364Z,9.14
2023-04-11T17:18:33.982Z,8.99
2023-04-11T17:21:36.646Z,8.91
2023-04-11T17:24:41.376Z,8.86
2023-04-11T17:27:43.931Z,8.73
2023-04-11T17:30:47.179Z,8.65
2023-04-11T17:33:50.160Z,8.63
2023-04-11T17:36:52.740Z,8.57
2023-04-11T17:39:57.619Z,8.67
2023-04-11T17:43:00.565Z,8.57
2023-04-11T17:46:03.167Z,8.32
2023-04-11T17:49:05.715Z,8.07
2023-04-11T17:52:08.264Z,7.85
2023-04-11T17:55:14.090Z,7.78
2023-04-11T17:58:17.152Z,7.67
2023-04-11T18:01:20.879Z,7.51
2023-04-11T18:04:23.983Z,7.36
2023-04-11T18:07:26.584Z,7.32
2023-04-11T18:10:31.336Z,7.17
2023-04-11T18:13:33.923Z,7.04
2023-04-11T18:16:38.727Z,7.00
2023-04-11T18:19:41.253Z,7.01
2023-04-11T18:22:45.325Z,7.02
2023-04-11T18:25:49.147Z,6.95
2023-04-11T18:28:51.728Z,7.07
2023-04-11T18:32:20.575Z,7.03
2023-04-11T18:35:18.339Z,7.06
2023-04-11T18:38:21.312Z,7.07
2023-04-11T18:41:25.869Z,7.10
2023-04-11T18:44:28.413Z,7.07
2023-04-11T18:47:31.058Z,7.11
2023-04-11T18:50:38.682Z,7.15
2023-04-11T18:53:41.729Z,7.13
2023-04-11T18:56:48.148Z,7.13
2023-04-11T18:59:54.626Z,7.06
2023-04-11T19:02:58.768Z,7.04
2023-04-11T19:06:01.816Z,7.03
2023-04-11T19:09:06.005Z,7.02
2023-04-11T19:12:10.765Z,7.02
2023-04-11T19:15:13.685Z,7.02
2023-04-11T19:18:16.352Z,7.03
2023-04-11T19:21:18.951Z,6.97
2023-04-11T19:24:21.665Z,7.03
2023-04-11T19:27:25.526Z,7.02
2023-04-11T19:30:28.573Z,6.92
2023-04-11T19:33:31.107Z,6.88
2023-04-11T19:36:33.655Z,6.85
2023-04-11T19:39:38.705Z,6.76
2023-04-11T19:42:43.204Z,6.71
2023-04-11T19:45:46.489Z,6.70
2023-04-11T19:48:49.083Z,6.61
2023-04-11T19:51:52.505Z,6.45
2023-04-11T19:54:56.348Z,6.27
2023-04-11T19:58:00.383Z,6.08
2023-04-11T20:01:03.402Z,6.04
